Time;durP1;ratioP1;P1;durP2;ratioP2;P2;SDS_P1;SDS_P2;PMS_P1;PMS_P2;Temp;Humidity;BMP_temperature;BMP_pressure;BME280_temperature;BME280_humidity;BME280_pressure;Samples;Min_cycle;Max_cycle;Signal;HPM_P1;HPM_P2
2023/01/29 00:01:59;;;;;;;25.58;10.48;;;;;;;;;;6117954;23;20528;-65
2023/01/29 00:04:29;;;;;;;24.00;10.98;;;;;;;;;;6099896;23;20019;-65
2023/01/29 00:06:56;;;;;;;24.13;11.07;;;;;;;;;;6120752;23;20017;-65
2023/01/29 00:09:24;;;;;;;27.77;11.50;;;;;;;;;;6115164;23;20396;-65
2023/01/29 00:11:52;;;;;;;25.58;11.82;;;;;;;;;;6108867;23;20025;-65
2023/01/29 00:14:21;;;;;;;22.02;10.77;;;;;;;;;;6122609;23;20482;-64
2023/01/29 00:16:53;;;;;;;26.52;11.60;;;;;;;;;;6114302;23;20626;-66
2023/01/29 00:19:20;;;;;;;26.33;11.77;;;;;;;;;;6127088;23;20045;-65
2023/01/29 00:21:49;;;;;;;25.50;11.82;;;;;;;;;;6104476;23;20032;-65
2023/01/29 00:24:17;;;;;;;23.45;11.98;;;;;;;;;;6123910;23;20492;-65
2023/01/29 00:26:44;;;;;;;26.10;11.52;;;;;;;;;;6088481;23;20025;-65
2023/01/29 00:29:12;;;;;;;26.00;11.57;;;;;;;;;;6111498;23;20045;-65
2023/01/29 00:31:40;;;;;;;24.53;12.17;;;;;;;;;;6124213;23;20096;-66
2023/01/29 00:34:08;;;;;;;23.88;11.35;;;;;;;;;;6118162;23;20052;-65
2023/01/29 00:36:35;;;;;;;25.38;11.98;;;;;;;;;;6129269;23;20089;-66
2023/01/29 00:39:09;;;;;;;26.75;11.55;;;;;;;;;;6103390;23;20203;-65
2023/01/29 00:47:32;;;;;;;23.65;11.52;;;;;;;;;;6026108;23;20098;-65
2023/01/29 00:50:02;;;;;;;26.35;11.05;;;;;;;;;;6092857;23;20028;-65
2023/01/29 00:52:32;;;;;;;26.48;11.00;;;;;;;;;;6127928;23;20068;-65
2023/01/29 00:55:01;;;;;;;30.38;12.07;;;;;;;;;;6114880;23;20017;-66
2023/01/29 00:57:29;;;;;;;25.10;11.47;;;;;;;;;;6103898;23;20013;-64
2023/01/29 00:59:57;;;;;;;25.88;11.60;;;;;;;;;;6121406;23;20553;-66
2023/01/29 01:05:12;;;;;;;22.42;9.52;;;;;;;;;;6096134;23;20048;-66
2023/01/29 01:07:40;;;;;;;21.48;9.80;;;;;;;;;;6129300;23;20041;-65
2023/01/29 01:10:22;;;;;;;23.83;10.57;;;;;;;;;;6116757;23;20010;-66
2023/01/29 01:12:53;;;;;;;25.38;10.85;;;;;;;;;;6115311;23;20060;-66
2023/01/29 01:15:21;;;;;;;24.20;10.05;;;;;;;;;;6124720;23;20021;-64
2023/01/29 01:17:51;;;;;;;22.85;9.65;;;;;;;;;;6126960;23;20033;-65
2023/01/29 01:20:20;;;;;;;26.08;11.15;;;;;;;;;;6120825;23;20392;-65
2023/01/29 01:22:47;;;;;;;23.47;9.57;;;;;;;;;;6121805;23;20332;-64
2023/01/29 01:25:17;;;;;;;19.55;9.45;;;;;;;;;;6122179;23;20392;-64
2023/01/29 01:27:47;;;;;;;22.45;10.23;;;;;;;;;;6117908;23;20077;-66
2023/01/29 01:30:16;;;;;;;19.58;8.82;;;;;;;;;;6129555;23;20032;-65
2023/01/29 01:32:44;;;;;;;19.25;8.23;;;;;;;;;;6122421;23;20026;-65
2023/01/29 01:35:13;;;;;;;21.37;9.17;;;;;;;;;;6130501;23;20148;-65
2023/01/29 01:37:41;;;;;;;16.60;8.10;;;;;;;;;;6120254;23;20028;-66
2023/01/29 01:40:11;;;;;;;22.45;9.27;;;;;;;;;;6129370;23;20071;-64
2023/01/29 01:42:41;;;;;;;21.55;8.75;;;;;;;;;;6123388;23;20460;-65
2023/01/29 01:45:17;;;;;;;17.67;8.25;;;;;;;;;;6127099;23;20395;-66
2023/01/29 01:47:46;;;;;;;18.77;8.70;;;;;;;;;;6128173;23;20053;-64
2023/01/29 01:50:15;;;;;;;20.88;8.10;;;;;;;;;;6104135;23;20045;-64
2023/01/29 01:52:45;;;;;;;21.50;9.00;;;;;;;;;;6130732;23;20060;-65
2023/01/29 01:55:14;;;;;;;20.50;9.20;;;;;;;;;;6119914;23;20539;-65
2023/01/29 01:57:45;;;;;;;20.13;8.13;;;;;;;;;;6126656;23;20041;-65
2023/01/29 02:00:15;;;;;;;17.17;8.40;;;;;;;;;;6124314;23;20474;-65
2023/01/29 02:11:05;;;;;;;19.50;8.32;;;;;;;;;;6119441;23;20018;-64
2023/01/29 02:13:35;;;;;;;21.30;9.97;;;;;;;;;;6127679;23;20041;-64
2023/01/29 02:16:02;;;;;;;20.17;8.30;;;;;;;;;;6128586;23;20014;-65
2023/01/29 02:18:36;;;;;;;20.73;10.23;;;;;;;;;;6126907;23;20453;-66
2023/01/29 02:21:12;;;;;;;22.27;9.40;;;;;;;;;;6124347;23;20014;-65
2023/01/29 02:23:50;;;;;;;20.95;9.15;;;;;;;;;;6117829;23;20041;-64
2023/01/29 02:26:33;;;;;;;21.27;9.50;;;;;;;;;;6126438;23;20059;-64
2023/01/29 02:31:52;;;;;;;19.65;9.02;;;;;;;;;;6124846;23;20017;-65
2023/01/29 02:34:25;;;;;;;25.23;9.75;;;;;;;;;;6113578;23;20532;-64
2023/01/29 02:36:57;;;;;;;22.33;9.55;;;;;;;;;;6101021;23;20101;-66
2023/01/29 02:39:28;;;;;;;25.63;9.57;;;;;;;;;;6117715;23;20013;-65
2023/01/29 02:42:00;;;;;;;20.42;8.63;;;;;;;;;;6124530;23;20069;-65
2023/01/29 02:44:33;;;;;;;21.85;9.65;;;;;;;;;;6130229;23;20044;-65
2023/01/29 02:47:04;;;;;;;19.90;9.00;;;;;;;;;;6085703;23;20401;-65
2023/01/29 02:49:33;;;;;;;19.02;9.02;;;;;;;;;;6129704;23;20500;-65
2023/01/29 02:52:02;;;;;;;20.77;9.13;;;;;;;;;;6117912;23;20756;-65
2023/01/29 02:54:33;;;;;;;19.88;8.60;;;;;;;;;;6094843;23;20202;-64
2023/01/29 02:57:07;;;;;;;18.17;7.80;;;;;;;;;;6108048;23;20100;-65
2023/01/29 02:59:38;;;;;;;19.25;7.80;;;;;;;;;;6132222;23;20060;-65
2023/01/29 03:02:08;;;;;;;19.10;8.20;;;;;;;;;;6098550;23;20425;-65
2023/01/29 03:04:41;;;;;;;19.07;7.73;;;;;;;;;;6116403;23;20014;-65
2023/01/29 03:07:21;;;;;;;21.10;8.05;;;;;;;;;;6112763;23;20551;-66
2023/01/29 03:09:50;;;;;;;19.42;8.35;;;;;;;;;;6123072;23;20020;-64
2023/01/29 03:12:27;;;;;;;18.60;7.60;;;;;;;;;;6125017;23;20104;-65
2023/01/29 03:15:15;;;;;;;19.40;8.70;;;;;;;;;;6120274;23;20049;-65
2023/01/29 03:17:46;;;;;;;19.70;8.67;;;;;;;;;;6125342;23;20017;-64
2023/01/29 03:20:17;;;;;;;20.88;8.95;;;;;;;;;;6120617;23;20332;-64
2023/01/29 03:22:53;;;;;;;23.73;9.45;;;;;;;;;;6126098;23;20024;-64
2023/01/29 03:33:45;;;;;;;19.88;8.82;;;;;;;;;;6124310;23;20021;-65
2023/01/29 03:36:16;;;;;;;22.70;9.13;;;;;;;;;;6116321;23;20340;-65
2023/01/29 03:38:44;;;;;;;20.58;8.32;;;;;;;;;;6128406;23;20060;-64
2023/01/29 03:41:15;;;;;;;18.45;7.90;;;;;;;;;;6117699;23;20345;-64
2023/01/29 03:43:47;;;;;;;20.43;8.33;;;;;;;;;;6123121;23;20757;-64
2023/01/29 03:46:21;;;;;;;20.25;9.18;;;;;;;;;;6122330;23;20544;-64
2023/01/29 03:48:54;;;;;;;22.20;8.07;;;;;;;;;;6119565;23;20542;-64
2023/01/29 03:51:24;;;;;;;18.77;7.85;;;;;;;;;;6127960;23;20013;-64
2023/01/29 03:53:55;;;;;;;22.00;8.98;;;;;;;;;;6107172;23;20470;-65
2023/01/29 03:56:36;;;;;;;19.37;7.80;;;;;;;;;;6122061;23;20116;-65
2023/01/29 03:59:11;;;;;;;20.45;7.75;;;;;;;;;;6130589;23;20092;-65
2023/01/29 04:01:46;;;;;;;20.55;7.32;;;;;;;;;;6134396;23;20014;-66
2023/01/29 04:04:15;;;;;;;22.08;8.73;;;;;;;;;;6113020;23;20024;-64
2023/01/29 04:06:44;;;;;;;18.80;7.75;;;;;;;;;;6118298;23;20085;-66
2023/01/29 04:09:14;;;;;;;24.17;9.00;;;;;;;;;;6125273;23;20018;-65
2023/01/29 04:11:44;;;;;;;21.25;9.18;;;;;;;;;;6123950;23;20024;-65
2023/01/29 04:14:12;;;;;;;23.60;9.02;;;;;;;;;;6117441;23;20084;-65
2023/01/29 04:16:44;;;;;;;24.13;8.73;;;;;;;;;;6129353;23;20416;-65
2023/01/29 04:19:12;;;;;;;22.42;8.90;;;;;;;;;;6110466;23;20023;-65
2023/01/29 04:21:40;;;;;;;21.97;9.17;;;;;;;;;;6125238;23;20022;-64
2023/01/29 04:24:08;;;;;;;23.45;9.57;;;;;;;;;;6112482;23;20452;-65
2023/01/29 04:26:56;;;;;;;21.92;8.90;;;;;;;;;;6122526;23;20017;-64
2023/01/29 04:29:36;;;;;;;22.63;8.73;;;;;;;;;;6070315;23;20025;-64
2023/01/29 04:32:09;;;;;;;21.90;8.90;;;;;;;;;;6126717;23;20069;-64
2023/01/29 04:34:41;;;;;;;23.43;8.90;;;;;;;;;;6112936;23;20096;-65
2023/01/29 04:37:12;;;;;;;24.70;9.13;;;;;;;;;;6119927;23;20472;-64
2023/01/29 04:39:43;;;;;;;20.95;8.95;;;;;;;;;;6125037;23;20048;-64
2023/01/29 04:42:13;;;;;;;20.58;8.95;;;;;;;;;;6115577;23;20024;-66
2023/01/29 04:44:44;;;;;;;24.98;8.80;;;;;;;;;;6130953;23;20068;-64
2023/01/29 04:47:18;;;;;;;25.07;9.37;;;;;;;;;;6114634;23;20045;-65
2023/01/29 04:49:50;;;;;;;23.98;10.35;;;;;;;;;;6127989;23;20068;-64
2023/01/29 04:52:21;;;;;;;20.77;8.63;;;;;;;;;;6115466;23;20420;-59
2023/01/29 04:54:55;;;;;;;23.35;8.85;;;;;;;;;;6128027;23;20096;-64
2023/01/29 04:57:26;;;;;;;25.75;9.10;;;;;;;;;;6124802;23;20013;-64
2023/01/29 04:59:58;;;;;;;23.40;8.53;;;;;;;;;;6118606;23;20013;-64
2023/01/29 05:02:27;;;;;;;28.02;9.45;;;;;;;;;;6125045;23;20064;-64
2023/01/29 05:04:55;;;;;;;24.52;9.95;;;;;;;;;;6121316;23;20018;-64
2023/01/29 05:07:24;;;;;;;21.27;9.18;;;;;;;;;;6126655;23;20461;-64
2023/01/29 05:09:52;;;;;;;23.48;9.65;;;;;;;;;;6119814;23;20017;-64
2023/01/29 05:12:20;;;;;;;28.53;10.23;;;;;;;;;;6126488;23;20017;-65
2023/01/29 05:14:49;;;;;;;24.10;9.93;;;;;;;;;;6125507;23;20064;-64
2023/01/29 05:17:18;;;;;;;26.48;11.25;;;;;;;;;;6118398;23;20442;-65
2023/01/29 05:19:47;;;;;;;28.23;9.77;;;;;;;;;;6131329;23;20089;-65
2023/01/29 05:22:16;;;;;;;26.05;10.13;;;;;;;;;;6090362;23;20677;-64
2023/01/29 05:24:45;;;;;;;27.63;10.23;;;;;;;;;;6129028;23;20510;-64
2023/01/29 05:30:05;;;;;;;26.33;10.07;;;;;;;;;;6124116;23;20017;-64
2023/01/29 05:32:34;;;;;;;26.58;10.40;;;;;;;;;;6131712;23;20025;-64
2023/01/29 05:35:03;;;;;;;25.38;10.48;;;;;;;;;;6113958;23;20072;-63
2023/01/29 05:37:31;;;;;;;27.83;10.20;;;;;;;;;;6123329;23;20013;-64
2023/01/29 05:39:58;;;;;;;26.02;10.10;;;;;;;;;;6126047;23;20021;-65
2023/01/29 05:42:26;;;;;;;28.65;10.00;;;;;;;;;;6120664;23;20018;-63
2023/01/29 05:44:53;;;;;;;24.83;9.80;;;;;;;;;;6114394;23;20065;-64
2023/01/29 05:47:21;;;;;;;23.35;9.10;;;;;;;;;;6125829;23;20018;-64
2023/01/29 05:49:49;;;;;;;24.50;10.03;;;;;;;;;;6124127;23;20041;-64
2023/01/29 05:52:18;;;;;;;27.05;10.07;;;;;;;;;;6121954;23;20051;-64
2023/01/29 05:54:45;;;;;;;28.90;9.95;;;;;;;;;;6115358;23;20094;-65
2023/01/29 05:57:14;;;;;;;25.27;10.13;;;;;;;;;;6125373;23;20041;-64
2023/01/29 05:59:43;;;;;;;25.95;10.45;;;;;;;;;;6118951;23;20093;-65
2023/01/29 06:02:10;;;;;;;28.43;10.37;;;;;;;;;;6119457;23;20100;-64
2023/01/29 06:04:38;;;;;;;26.55;10.05;;;;;;;;;;6128005;23;20023;-62
2023/01/29 06:07:06;;;;;;;23.00;9.35;;;;;;;;;;6121518;23;20102;-65
2023/01/29 06:09:38;;;;;;;24.02;10.55;;;;;;;;;;6127488;23;20089;-64
2023/01/29 06:12:07;;;;;;;23.33;9.20;;;;;;;;;;6101999;23;20013;-66
2023/01/29 06:14:34;;;;;;;29.20;10.43;;;;;;;;;;6123145;23;20085;-63
2023/01/29 06:17:02;;;;;;;27.58;9.40;;;;;;;;;;6123888;23;20013;-64
2023/01/29 06:19:30;;;;;;;26.67;9.68;;;;;;;;;;6119980;23;20068;-64
2023/01/29 06:21:57;;;;;;;28.30;10.55;;;;;;;;;;6119204;23;20018;-64
2023/01/29 06:24:25;;;;;;;27.92;10.85;;;;;;;;;;6122927;23;20041;-64
2023/01/29 06:26:54;;;;;;;27.87;10.47;;;;;;;;;;6119717;23;20013;-65
2023/01/29 06:29:22;;;;;;;27.13;9.48;;;;;;;;;;6126588;23;20045;-65
2023/01/29 06:31:49;;;;;;;25.98;9.95;;;;;;;;;;6114540;23;20445;-63
2023/01/29 06:34:18;;;;;;;27.17;10.50;;;;;;;;;;6126027;23;20025;-59
2023/01/29 06:36:45;;;;;;;26.13;10.40;;;;;;;;;;6113836;23;20064;-64
2023/01/29 06:39:13;;;;;;;27.83;10.33;;;;;;;;;;6113076;23;20018;-64
2023/01/29 06:41:41;;;;;;;27.42;9.43;;;;;;;;;;6125903;23;20477;-65
2023/01/29 06:44:10;;;;;;;28.85;10.23;;;;;;;;;;6111182;23;20460;-65
2023/01/29 06:46:40;;;;;;;25.55;9.98;;;;;;;;;;6127606;23;20014;-65
2023/01/29 06:49:09;;;;;;;25.58;9.68;;;;;;;;;;6127662;23;20100;-65
2023/01/29 06:51:37;;;;;;;24.50;9.87;;;;;;;;;;6119854;23;20060;-64
2023/01/29 06:54:07;;;;;;;33.60;10.05;;;;;;;;;;6127914;23;20041;-65
2023/01/29 06:56:34;;;;;;;27.33;10.73;;;;;;;;;;6106664;23;20071;-65
2023/01/29 06:59:06;;;;;;;28.85;9.45;;;;;;;;;;6126364;23;20121;-65
2023/01/29 07:01:44;;;;;;;27.30;9.77;;;;;;;;;;6116680;23;20013;-66
2023/01/29 07:04:12;;;;;;;26.13;9.53;;;;;;;;;;6122602;23;20199;-65
2023/01/29 07:06:40;;;;;;;26.20;8.63;;;;;;;;;;6118971;23;20487;-66
2023/01/29 07:09:07;;;;;;;33.78;10.32;;;;;;;;;;6130360;23;20013;-66
2023/01/29 07:11:36;;;;;;;27.00;10.10;;;;;;;;;;6095645;23;20049;-66
2023/01/29 07:14:04;;;;;;;32.40;9.80;;;;;;;;;;6122488;23;20069;-66
2023/01/29 07:16:32;;;;;;;29.67;9.60;;;;;;;;;;6095265;23;20029;-65
2023/01/29 07:19:01;;;;;;;26.48;9.60;;;;;;;;;;6113626;23;20021;-65
2023/01/29 07:21:29;;;;;;;34.90;8.93;;;;;;;;;;6128744;23;20040;-65
2023/01/29 07:23:57;;;;;;;27.42;10.43;;;;;;;;;;6115903;23;20017;-65
2023/01/29 07:26:25;;;;;;;29.13;8.45;;;;;;;;;;6132069;23;20092;-65
2023/01/29 07:28:53;;;;;;;26.60;8.37;;;;;;;;;;6112461;23;20017;-66
2023/01/29 07:31:21;;;;;;;26.25;8.18;;;;;;;;;;6126180;23;20017;-64
2023/01/29 07:33:49;;;;;;;26.73;8.98;;;;;;;;;;6122670;23;20052;-65
2023/01/29 07:36:18;;;;;;;24.90;8.60;;;;;;;;;;6127687;23;20018;-65
2023/01/29 07:38:48;;;;;;;30.85;9.02;;;;;;;;;;6106290;23;20061;-65
2023/01/29 07:41:16;;;;;;;24.50;8.37;;;;;;;;;;6129079;23;20092;-65
2023/01/29 07:43:44;;;;;;;27.23;9.07;;;;;;;;;;6116153;23;20421;-65
2023/01/29 07:46:11;;;;;;;22.98;7.47;;;;;;;;;;6121088;23;20520;-65
2023/01/29 07:48:39;;;;;;;32.83;8.55;;;;;;;;;;6114847;23;20388;-65
2023/01/29 07:51:07;;;;;;;30.38;9.05;;;;;;;;;;6128125;23;20116;-65
2023/01/29 07:53:36;;;;;;;24.90;8.03;;;;;;;;;;6118052;23;20453;-65
2023/01/29 07:56:04;;;;;;;25.45;8.15;;;;;;;;;;6125534;23;20056;-65
2023/01/29 07:58:32;;;;;;;29.55;8.57;;;;;;;;;;6118682;23;20392;-65
2023/01/29 08:01:05;;;;;;;26.45;8.90;;;;;;;;;;6097644;23;20021;-65
2023/01/29 08:03:33;;;;;;;28.90;9.07;;;;;;;;;;6087261;23;20481;-65
2023/01/29 08:06:01;;;;;;;28.43;8.87;;;;;;;;;;6126773;23;20084;-65
2023/01/29 08:08:28;;;;;;;26.70;8.82;;;;;;;;;;6117559;23;20013;-65
2023/01/29 08:11:00;;;;;;;33.15;9.35;;;;;;;;;;6130525;23;20021;-64
2023/01/29 08:13:27;;;;;;;27.13;8.30;;;;;;;;;;6113691;23;20041;-65
2023/01/29 08:15:59;;;;;;;30.35;9.88;;;;;;;;;;6129688;23;20017;-65
2023/01/29 08:18:27;;;;;;;30.27;9.00;;;;;;;;;;6122752;23;20065;-65
2023/01/29 08:20:58;;;;;;;30.38;9.82;;;;;;;;;;6129957;23;20060;-65
2023/01/29 08:23:31;;;;;;;24.45;8.52;;;;;;;;;;6125437;23;20018;-65
2023/01/29 08:26:01;;;;;;;27.45;8.52;;;;;;;;;;6122140;23;20060;-65
2023/01/29 08:28:29;;;;;;;26.77;8.95;;;;;;;;;;6122112;23;20025;-65
2023/01/29 08:30:57;;;;;;;24.63;8.90;;;;;;;;;;6127568;23;20014;-66
2023/01/29 08:33:27;;;;;;;25.05;8.85;;;;;;;;;;6114257;23;20025;-64
2023/01/29 08:36:05;;;;;;;28.17;9.43;;;;;;;;;;6119962;23;20013;-65
2023/01/29 08:38:33;;;;;;;29.05;8.82;;;;;;;;;;6124327;23;20052;-65
2023/01/29 08:41:02;;;;;;;21.98;7.70;;;;;;;;;;6125941;23;20064;-64
2023/01/29 08:43:29;;;;;;;26.70;8.37;;;;;;;;;;6122133;23;20018;-65
2023/01/29 08:45:57;;;;;;;29.60;9.95;;;;;;;;;;6125277;23;20357;-64
2023/01/29 08:48:26;;;;;;;24.65;8.60;;;;;;;;;;6127280;23;20106;-66
2023/01/29 08:50:56;;;;;;;23.23;8.60;;;;;;;;;;6127781;23;20104;-65
2023/01/29 08:53:24;;;;;;;27.15;8.30;;;;;;;;;;6119120;23;20417;-65
2023/01/29 08:55:52;;;;;;;26.13;9.00;;;;;;;;;;6127183;23;20026;-65
2023/01/29 08:58:21;;;;;;;29.95;9.45;;;;;;;;;;6123601;23;20065;-66
2023/01/29 09:00:49;;;;;;;26.10;9.18;;;;;;;;;;6129234;23;20100;-64
2023/01/29 09:03:17;;;;;;;30.15;9.13;;;;;;;;;;6115068;23;20036;-65
2023/01/29 09:05:45;;;;;;;28.02;9.55;;;;;;;;;;6131762;23;20017;-65
2023/01/29 09:08:14;;;;;;;34.87;10.53;;;;;;;;;;6109788;23;20490;-65
2023/01/29 09:10:41;;;;;;;28.80;10.10;;;;;;;;;;6130201;23;20037;-65
2023/01/29 09:13:09;;;;;;;25.90;8.70;;;;;;;;;;6124200;23;20631;-65
2023/01/29 09:15:38;;;;;;;25.02;8.85;;;;;;;;;;6126620;23;20225;-65
2023/01/29 09:18:06;;;;;;;23.08;8.55;;;;;;;;;;6123239;23;20092;-65
2023/01/29 09:20:34;;;;;;;29.20;9.73;;;;;;;;;;6119391;23;20030;-65
2023/01/29 09:23:03;;;;;;;28.42;9.60;;;;;;;;;;6120361;23;20014;-64
2023/01/29 09:25:31;;;;;;;26.38;8.73;;;;;;;;;;6119563;23;20022;-65
2023/01/29 09:27:59;;;;;;;27.65;10.15;;;;;;;;;;6096137;23;20021;-65
2023/01/29 09:30:26;;;;;;;27.45;8.27;;;;;;;;;;6127338;23;20044;-64
2023/01/29 09:32:55;;;;;;;32.50;10.07;;;;;;;;;;6119242;23;20041;-65
2023/01/29 09:35:23;;;;;;;24.63;8.07;;;;;;;;;;6119252;23;20914;-64
2023/01/29 09:37:53;;;;;;;23.73;8.35;;;;;;;;;;6125857;23;20017;-66
2023/01/29 09:40:24;;;;;;;23.73;8.88;;;;;;;;;;6121210;23;20013;-64
2023/01/29 09:42:54;;;;;;;29.15;10.23;;;;;;;;;;6126239;23;20377;-65
2023/01/29 09:45:24;;;;;;;26.77;9.23;;;;;;;;;;6092190;23;20626;-66
2023/01/29 09:47:53;;;;;;;26.25;8.43;;;;;;;;;;6125606;23;20017;-65
2023/01/29 09:50:24;;;;;;;24.63;9.43;;;;;;;;;;6115925;23;20088;-65
2023/01/29 09:52:55;;;;;;;27.08;8.23;;;;;;;;;;6126105;23;20444;-65
2023/01/29 09:55:25;;;;;;;24.90;8.93;;;;;;;;;;6119499;23;20033;-65
2023/01/29 09:57:55;;;;;;;26.07;8.77;;;;;;;;;;6132084;23;20017;-64
2023/01/29 10:00:24;;;;;;;26.27;8.60;;;;;;;;;;6119572;23;20116;-63
2023/01/29 10:02:57;;;;;;;27.42;9.48;;;;;;;;;;6128083;23;20411;-67
2023/01/29 10:05:33;;;;;;;25.83;8.90;;;;;;;;;;6126872;23;20093;-64
2023/01/29 10:08:22;;;;;;;25.17;7.70;;;;;;;;;;6117215;23;20013;-64
2023/01/29 10:10:58;;;;;;;22.67;7.50;;;;;;;;;;6125676;23;20032;-63
2023/01/29 10:13:29;;;;;;;20.27;8.43;;;;;;;;;;6126065;23;20972;-64
2023/01/29 10:16:07;;;;;;;21.98;6.80;;;;;;;;;;6121735;23;20049;-65
2023/01/29 10:18:55;;;;;;;18.83;7.18;;;;;;;;;;6115580;23;20438;-63
2023/01/29 10:21:32;;;;;;;15.32;6.22;;;;;;;;;;6094055;23;20040;-65
2023/01/29 10:24:05;;;;;;;18.40;6.50;;;;;;;;;;6121952;23;20010;-64
2023/01/29 10:26:34;;;;;;;17.10;6.88;;;;;;;;;;6125198;23;20018;-64
2023/01/29 10:29:05;;;;;;;17.90;5.80;;;;;;;;;;6122185;23;20017;-63
2023/01/29 10:31:37;;;;;;;17.88;6.68;;;;;;;;;;6127588;23;20041;-65
2023/01/29 10:34:12;;;;;;;15.02;5.40;;;;;;;;;;6125720;23;20036;-65
2023/01/29 10:36:43;;;;;;;18.47;5.70;;;;;;;;;;6121090;23;20049;-65
2023/01/29 10:39:15;;;;;;;13.93;5.68;;;;;;;;;;6101404;23;20048;-65
2023/01/29 10:41:47;;;;;;;17.70;5.97;;;;;;;;;;6116545;23;20068;-65
2023/01/29 10:44:20;;;;;;;16.38;6.47;;;;;;;;;;6118425;23;20100;-64
2023/01/29 10:46:57;;;;;;;15.75;6.07;;;;;;;;;;6128319;23;20064;-65
2023/01/29 10:49:35;;;;;;;19.10;6.97;;;;;;;;;;6115533;23;20017;-65
2023/01/29 10:52:10;;;;;;;18.80;7.07;;;;;;;;;;6117978;23;20021;-63
2023/01/29 10:54:49;;;;;;;21.80;8.05;;;;;;;;;;6128980;23;20022;-61
2023/01/29 10:57:23;;;;;;;16.27;6.00;;;;;;;;;;6109245;23;20483;-65
2023/01/29 11:00:00;;;;;;;17.17;6.68;;;;;;;;;;6118715;23;20018;-66
2023/01/29 11:02:28;;;;;;;17.57;5.97;;;;;;;;;;6118519;23;20017;-65
2023/01/29 11:04:55;;;;;;;18.52;6.35;;;;;;;;;;6116058;23;20460;-66
2023/01/29 11:07:26;;;;;;;18.35;6.10;;;;;;;;;;6123472;23;20577;-65
2023/01/29 11:09:57;;;;;;;16.00;6.00;;;;;;;;;;6108436;23;20025;-65
2023/01/29 11:12:29;;;;;;;18.48;6.03;;;;;;;;;;6121568;23;20018;-65
2023/01/29 11:14:59;;;;;;;15.30;5.30;;;;;;;;;;6115394;23;20013;-65
2023/01/29 11:17:27;;;;;;;15.98;5.25;;;;;;;;;;6123349;23;20021;-65
2023/01/29 11:19:55;;;;;;;15.50;5.45;;;;;;;;;;6120755;23;20018;-65
2023/01/29 11:22:24;;;;;;;15.55;5.82;;;;;;;;;;6114296;23;20022;-65
2023/01/29 11:25:12;;;;;;;14.35;5.55;;;;;;;;;;6125616;23;20021;-66
2023/01/29 11:27:43;;;;;;;15.23;5.27;;;;;;;;;;6120419;23;20428;-66
2023/01/29 11:30:16;;;;;;;14.27;5.10;;;;;;;;;;6110586;23;20079;-66
2023/01/29 11:32:44;;;;;;;14.30;4.93;;;;;;;;;;6128592;23;20014;-65
2023/01/29 11:35:20;;;;;;;14.68;4.80;;;;;;;;;;6112650;23;20017;-65
2023/01/29 11:37:48;;;;;;;10.10;4.00;;;;;;;;;;6122182;23;20021;-66
2023/01/29 11:40:32;;;;;;;12.60;4.37;;;;;;;;;;6115673;23;20022;-65
2023/01/29 11:43:17;;;;;;;10.35;3.47;;;;;;;;;;6112042;23;20444;-65
2023/01/29 11:45:45;;;;;;;12.00;3.70;;;;;;;;;;6119231;23;20049;-65
2023/01/29 11:48:14;;;;;;;11.07;3.28;;;;;;;;;;6123801;23;20069;-66
2023/01/29 11:50:42;;;;;;;9.27;3.40;;;;;;;;;;6120585;23;20064;-66
2023/01/29 11:53:23;;;;;;;11.00;3.77;;;;;;;;;;6120781;23;20018;-65
2023/01/29 11:55:52;;;;;;;9.63;3.25;;;;;;;;;;6128088;23;20462;-67
2023/01/29 11:58:25;;;;;;;12.63;3.45;;;;;;;;;;6123549;23;20045;-68
2023/01/29 12:00:54;;;;;;;11.18;3.75;;;;;;;;;;6126676;23;20473;-60
2023/01/29 12:03:23;;;;;;;9.20;3.47;;;;;;;;;;6063362;23;109754;-61
2023/01/29 12:05:56;;;;;;;11.03;3.67;;;;;;;;;;6067065;23;20090;-64
2023/01/29 12:08:24;;;;;;;9.45;3.53;;;;;;;;;;6090555;23;20352;-61
2023/01/29 12:11:06;;;;;;;11.80;4.00;;;;;;;;;;6096681;23;20532;-63
2023/01/29 12:13:37;;;;;;;10.95;3.42;;;;;;;;;;6089540;23;20022;-64
2023/01/29 12:16:11;;;;;;;9.10;3.20;;;;;;;;;;6094687;23;20018;-64
2023/01/29 12:18:41;;;;;;;9.40;3.47;;;;;;;;;;6094398;23;20045;-63
2023/01/29 12:21:12;;;;;;;9.15;3.22;;;;;;;;;;6085056;23;20081;-62
2023/01/29 12:23:43;;;;;;;9.75;3.47;;;;;;;;;;6091622;23;20398;-63
2023/01/29 12:26:14;;;;;;;11.73;3.60;;;;;;;;;;6094527;23;20255;-62
2023/01/29 12:28:48;;;;;;;9.25;2.88;;;;;;;;;;6094243;23;20643;-62
2023/01/29 12:31:22;;;;;;;11.00;3.40;;;;;;;;;;6091361;23;20524;-63
2023/01/29 12:33:53;;;;;;;9.80;3.45;;;;;;;;;;6098355;23;20065;-63
2023/01/29 12:36:23;;;;;;;10.95;3.13;;;;;;;;;;6092863;23;20018;-62
2023/01/29 12:38:50;;;;;;;10.10;3.05;;;;;;;;;;6096620;23;20022;-62
2023/01/29 12:41:28;;;;;;;10.40;3.38;;;;;;;;;;6090954;23;20025;-57
2023/01/29 12:44:00;;;;;;;8.87;3.00;;;;;;;;;;6097405;23;20069;-62
2023/01/29 12:46:28;;;;;;;10.57;3.03;;;;;;;;;;6092199;23;20076;-64
2023/01/29 12:48:58;;;;;;;8.85;3.33;;;;;;;;;;6097034;23;20420;-63
2023/01/29 12:51:29;;;;;;;12.10;3.72;;;;;;;;;;6125581;23;20093;-63
2023/01/29 12:53:59;;;;;;;9.23;3.10;;;;;;;;;;6116487;23;20885;-62
2023/01/29 12:56:29;;;;;;;8.33;3.20;;;;;;;;;;6129009;23;20091;-63
2023/01/29 12:58:59;;;;;;;8.52;3.30;;;;;;;;;;6114556;23;20021;-63
2023/01/29 13:01:30;;;;;;;10.57;2.50;;;;;;;;;;6132523;23;20452;-62
2023/01/29 13:03:59;;;;;;;7.88;2.88;;;;;;;;;;6117532;23;20017;-62
2023/01/29 13:06:30;;;;;;;8.52;2.60;;;;;;;;;;6122675;23;20017;-65
2023/01/29 13:08:59;;;;;;;7.73;2.73;;;;;;;;;;6122840;23;20065;-63
2023/01/29 13:11:29;;;;;;;7.57;2.72;;;;;;;;;;6117991;23;20029;-63
2023/01/29 13:13:59;;;;;;;6.88;2.35;;;;;;;;;;6124895;23;20376;-62
2023/01/29 13:16:28;;;;;;;6.80;1.38;;;;;;;;;;6130538;23;20017;-63
2023/01/29 13:18:57;;;;;;;6.25;1.77;;;;;;;;;;6092971;23;20033;-63
2023/01/29 13:21:27;;;;;;;9.27;2.20;;;;;;;;;;6127799;23;20510;-62
2023/01/29 13:23:56;;;;;;;7.65;1.77;;;;;;;;;;6110334;23;20076;-63
2023/01/29 13:26:25;;;;;;;5.90;1.92;;;;;;;;;;6132170;23;20186;-63
2023/01/29 13:28:53;;;;;;;8.18;2.10;;;;;;;;;;6117412;23;20104;-64
2023/01/29 13:31:27;;;;;;;6.03;1.77;;;;;;;;;;6126072;23;20511;-62
2023/01/29 13:33:59;;;;;;;6.20;1.90;;;;;;;;;;6118412;23;20014;-62
2023/01/29 13:36:28;;;;;;;5.60;1.83;;;;;;;;;;6119438;23;20018;-62
2023/01/29 13:38:59;;;;;;;5.03;1.73;;;;;;;;;;6112604;23;20018;-62
2023/01/29 13:41:34;;;;;;;6.93;1.67;;;;;;;;;;6127614;23;20093;-62
2023/01/29 13:44:02;;;;;;;5.15;1.40;;;;;;;;;;6120879;23;20018;-62
2023/01/29 13:46:33;;;;;;;4.87;1.77;;;;;;;;;;6117571;23;20507;-62
2023/01/29 13:49:03;;;;;;;5.80;0.98;;;;;;;;;;6091316;23;20049;-63
2023/01/29 13:51:34;;;;;;;5.40;1.50;;;;;;;;;;6122001;23;20087;-62
2023/01/29 13:54:03;;;;;;;8.82;2.67;;;;;;;;;;6121999;23;20092;-62
2023/01/29 13:56:50;;;;;;;8.73;3.20;;;;;;;;;;6116428;23;20559;-62
2023/01/29 13:59:22;;;;;;;10.17;3.63;;;;;;;;;;6124967;23;20035;-58
2023/01/29 14:02:08;;;;;;;7.35;2.80;;;;;;;;;;6107775;23;20018;-62
2023/01/29 14:04:37;;;;;;;6.40;1.83;;;;;;;;;;6109068;23;20025;-61
2023/01/29 14:07:27;;;;;;;4.05;0.75;;;;;;;;;;6115196;23;20419;-63
2023/01/29 14:10:04;;;;;;;5.05;0.80;;;;;;;;;;6107779;23;20460;-62
2023/01/29 14:12:34;;;;;;;4.00;1.07;;;;;;;;;;6100377;23;20063;-62
2023/01/29 14:15:15;;;;;;;6.25;1.50;;;;;;;;;;6112550;23;20025;-61
2023/01/29 14:18:14;;;;;;;5.18;1.17;;;;;;;;;;6126882;23;20017;-62
2023/01/29 14:20:51;;;;;;;9.10;2.88;;;;;;;;;;6118709;23;20014;-62
2023/01/29 14:23:30;;;;;;;5.97;1.70;;;;;;;;;;6130261;23;20069;-63
2023/01/29 14:25:59;;;;;;;4.77;1.20;;;;;;;;;;6127372;23;20068;-63
2023/01/29 14:28:29;;;;;;;5.13;1.27;;;;;;;;;;6121552;23;20090;-62
2023/01/29 14:30:57;;;;;;;7.72;1.55;;;;;;;;;;6127466;23;20024;-62
2023/01/29 14:33:26;;;;;;;5.10;0.85;;;;;;;;;;6116598;23;20017;-60
2023/01/29 14:35:56;;;;;;;5.05;1.30;;;;;;;;;;6125100;23;20057;-63
2023/01/29 14:38:26;;;;;;;3.87;0.73;;;;;;;;;;6125819;23;20049;-64
2023/01/29 14:41:02;;;;;;;5.95;1.70;;;;;;;;;;6119318;23;20041;-64
2023/01/29 14:43:30;;;;;;;7.18;1.42;;;;;;;;;;6121395;23;20092;-63
2023/01/29 14:46:18;;;;;;;5.07;1.10;;;;;;;;;;6127391;23;20540;-64
2023/01/29 14:48:47;;;;;;;5.05;1.35;;;;;;;;;;6119566;23;20092;-64
2023/01/29 14:51:17;;;;;;;5.50;1.10;;;;;;;;;;6112782;23;20461;-63
2023/01/29 14:54:02;;;;;;;7.20;1.83;;;;;;;;;;6127800;23;20438;-63
2023/01/29 14:56:33;;;;;;;7.03;2.30;;;;;;;;;;6080994;23;20018;-63
2023/01/29 14:59:11;;;;;;;5.75;1.30;;;;;;;;;;6097011;23;20399;-63
2023/01/29 15:01:46;;;;;;;9.80;3.47;;;;;;;;;;6114902;23;20044;-63
2023/01/29 15:04:18;;;;;;;10.83;2.30;;;;;;;;;;6127844;23;20013;-62
2023/01/29 15:06:47;;;;;;;7.88;2.47;;;;;;;;;;6118511;23;20759;-63
2023/01/29 15:09:17;;;;;;;6.03;1.92;;;;;;;;;;6126344;23;20040;-63
2023/01/29 15:11:49;;;;;;;6.80;2.25;;;;;;;;;;6118683;23;20013;-62
2023/01/29 15:14:23;;;;;;;8.45;3.08;;;;;;;;;;6132735;23;20045;-63
2023/01/29 15:17:02;;;;;;;5.87;1.63;;;;;;;;;;6129275;23;20018;-62
2023/01/29 15:19:34;;;;;;;6.53;2.75;;;;;;;;;;6128934;23;20017;-62
2023/01/29 15:22:03;;;;;;;7.80;2.50;;;;;;;;;;6072272;23;20045;-63
2023/01/29 15:24:31;;;;;;;7.60;2.90;;;;;;;;;;6119137;23;20041;-62